Time;durP1;ratioP1;P1;durP2;ratioP2;P2;SDS_P1;SDS_P2;PMS_P1;PMS_P2;Temp;Humidity;BMP_temperature;BMP_pressure;BME280_temperature;BME280_humidity;BME280_pressure;Samples;Min_cycle;Max_cycle;Signal;HPM_P1;HPM_P2
2023/06/19 00:01:00;;;;;;;4.38;1.17;;;;;;;27.74;32.87;100883.97;4994670;28;20026;-56
2023/06/19 00:03:26;;;;;;;3.90;1.08;;;;;;;27.39;31.56;100876.75;4994547;28;20132;-56
2023/06/19 00:05:52;;;;;;;3.55;1.25;;;;;;;27.25;32.25;100874.91;4994865;28;20027;-56
2023/06/19 00:08:18;;;;;;;3.42;1.08;;;;;;;27.54;32.01;100879.88;4994516;28;20022;-56
2023/06/19 00:10:44;;;;;;;3.75;1.17;;;;;;;27.37;31.11;100877.03;4994496;28;20037;-56
2023/06/19 00:13:11;;;;;;;4.15;1.48;;;;;;;27.38;31.99;100872.38;4994689;28;20032;-57
2023/06/19 00:15:37;;;;;;;4.30;1.27;;;;;;;27.82;32.78;100871.38;4994328;28;20022;-54
2023/06/19 00:18:04;;;;;;;58.08;6.65;;;;;;;27.70;32.79;100874.72;4994483;28;20057;-59
2023/06/19 00:20:30;;;;;;;6.93;2.05;;;;;;;27.39;33.93;100869.31;4994149;28;20483;-57
2023/06/19 00:22:56;;;;;;;4.68;1.58;;;;;;;27.21;34.03;100875.88;4994132;28;20054;-58
2023/06/19 00:25:22;;;;;;;12.93;2.17;;;;;;;27.02;35.21;100865.88;4994167;28;20026;-57
2023/06/19 00:27:49;;;;;;;4.03;1.50;;;;;;;27.04;35.10;100877.38;4994273;28;20029;-55
2023/06/19 00:30:15;;;;;;;6.60;2.10;;;;;;;26.81;33.81;100875.78;4994800;28;20025;-56
2023/06/19 00:32:49;;;;;;;4.20;0.80;;;;;;;25.71;29.74;100865.16;4994100;28;20360;-57
2023/06/19 00:35:18;;;;;;;9.77;1.00;;;;;;;25.12;30.37;100875.13;4994125;28;20030;-57
2023/06/19 00:37:44;;;;;;;6.40;0.80;;;;;;;24.55;31.56;100866.25;4994904;28;20025;-55
2023/06/19 00:40:27;;;;;;;1.75;0.57;;;;;;;24.25;31.73;100868.31;4993977;28;20042;-55
2023/06/19 00:42:53;;;;;;;0.98;0.63;;;;;;;24.02;32.29;100869.19;4993989;28;20089;-59
2023/06/19 00:45:20;;;;;;;3.65;0.75;;;;;;;23.89;32.74;100874.28;4993930;28;20019;-59
2023/06/19 00:47:46;;;;;;;3.67;0.57;;;;;;;23.84;33.05;100862.63;4994160;28;20121;-64
2023/06/19 00:50:13;;;;;;;2.60;0.68;;;;;;;23.40;33.89;100855.50;4993911;28;20030;-61
2023/06/19 00:52:39;;;;;;;9.10;1.20;;;;;;;23.27;33.76;100865.22;4993938;28;20057;-60
2023/06/19 00:55:07;;;;;;;3.58;0.52;;;;;;;23.29;32.51;100862.19;4993783;28;20034;-60
2023/06/19 00:57:34;;;;;;;2.83;0.65;;;;;;;23.12;33.07;100863.44;4993738;28;20024;-63
2023/06/19 01:00:00;;;;;;;2.75;1.15;;;;;;;22.74;33.23;100862.41;4993683;28;20030;-62
2023/06/19 01:02:26;;;;;;;2.03;0.65;;;;;;;22.46;33.62;100860.47;4993652;28;20033;-63
2023/06/19 01:04:53;;;;;;;1.27;0.50;;;;;;;22.55;34.67;100858.78;4993537;28;20033;-62
2023/06/19 01:07:32;;;;;;;2.38;0.90;;;;;;;22.31;33.63;100848.56;4993785;28;20050;-63
2023/06/19 01:10:06;;;;;;;3.65;0.75;;;;;;;22.42;34.17;100843.84;4993498;28;20487;-64
2023/06/19 01:12:40;;;;;;;3.95;0.95;;;;;;;22.23;34.06;100846.47;4993983;28;20031;-63
2023/06/19 01:15:09;;;;;;;4.18;0.65;;;;;;;22.12;33.86;100842.19;4993943;28;20491;-64
2023/06/19 01:17:37;;;;;;;2.15;0.80;;;;;;;22.13;34.15;100838.34;4993477;28;20076;-64
2023/06/19 01:20:10;;;;;;;2.65;0.68;;;;;;;22.22;33.00;100849.50;4993421;28;20499;-64
2023/06/19 01:22:37;;;;;;;5.60;1.27;;;;;;;22.09;33.63;100839.97;4993791;28;20085;-64
2023/06/19 01:25:07;;;;;;;3.53;0.80;;;;;;;22.11;34.13;100849.56;4993429;28;20459;-64
2023/06/19 01:27:33;;;;;;;2.72;0.70;;;;;;;22.17;32.39;100847.59;4993411;28;20038;-64
2023/06/19 01:30:01;;;;;;;3.05;0.70;;;;;;;22.07;32.42;100847.63;4993361;28;20561;-64
2023/06/19 01:32:34;;;;;;;5.55;0.80;;;;;;;22.11;32.13;100846.81;4993654;28;20463;-65
2023/06/19 01:35:02;;;;;;;4.13;0.80;;;;;;;22.02;32.38;100853.13;4993668;28;20085;-65
2023/06/19 01:37:29;;;;;;;6.25;0.80;;;;;;;21.96;32.40;100844.16;4993579;28;20114;-64
2023/06/19 01:39:57;;;;;;;5.93;0.90;;;;;;;21.91;31.93;100844.19;4993375;28;20050;-64
2023/06/19 01:42:24;;;;;;;2.25;0.73;;;;;;;21.34;32.60;100851.81;4993241;28;20080;-64
2023/06/19 01:44:51;;;;;;;3.92;0.77;;;;;;;21.26;33.33;100851.50;4993168;28;20019;-64
2023/06/19 01:47:19;;;;;;;3.20;0.75;;;;;;;20.96;33.05;100857.84;4993270;28;20522;-64
2023/06/19 01:49:49;;;;;;;4.97;0.82;;;;;;;20.86;33.91;100853.25;4993250;28;20038;-64
2023/06/19 01:52:15;;;;;;;9.55;1.20;;;;;;;20.97;33.01;100860.28;4996570;28;20029;-64
2023/06/19 01:54:41;;;;;;;3.70;0.68;;;;;;;21.17;32.82;100855.91;4997301;28;20057;-64
2023/06/19 01:57:08;;;;;;;2.03;0.50;;;;;;;21.10;32.99;100867.09;4996991;28;20034;-64
2023/06/19 01:59:34;;;;;;;2.75;0.70;;;;;;;21.09;32.28;100860.81;4996963;28;20097;-65
2023/06/19 02:02:00;;;;;;;2.83;0.70;;;;;;;21.08;32.57;100866.53;4997200;28;20438;-61
2023/06/19 02:04:26;;;;;;;8.20;1.00;;;;;;;21.16;32.37;100871.44;4997174;28;20056;-62
2023/06/19 02:06:53;;;;;;;3.03;1.02;;;;;;;21.49;31.79;100853.66;4996805;28;20448;-62
2023/06/19 02:09:19;;;;;;;3.67;0.82;;;;;;;21.54;31.49;100859.09;4996825;28;20050;-63
2023/06/19 02:11:45;;;;;;;5.57;0.80;;;;;;;21.61;31.96;100865.06;4996698;28;20054;-62
2023/06/19 02:14:11;;;;;;;5.30;1.00;;;;;;;21.66;31.16;100869.66;4997051;28;20073;-62
2023/06/19 02:16:38;;;;;;;1.85;0.73;;;;;;;21.78;31.57;100870.16;4996662;28;20038;-62
2023/06/19 02:19:04;;;;;;;1.60;0.70;;;;;;;21.70;32.44;100865.28;4996650;28;20049;-62
2023/06/19 02:21:30;;;;;;;3.63;0.70;;;;;;;21.78;31.88;100866.59;4996797;28;20161;-61
2023/06/19 02:23:57;;;;;;;2.97;0.90;;;;;;;21.81;31.22;100869.56;4996596;28;20471;-62
2023/06/19 02:26:24;;;;;;;2.05;0.90;;;;;;;21.90;31.39;100863.56;4996376;28;20399;-62
2023/06/19 02:28:50;;;;;;;2.83;0.95;;;;;;;22.20;30.60;100866.09;4996530;28;20471;-62
2023/06/19 02:31:16;;;;;;;2.13;0.80;;;;;;;22.27;31.18;100871.25;4996899;28;20037;-61
2023/06/19 02:33:43;;;;;;;4.57;0.80;;;;;;;22.27;30.73;100874.81;4996560;28;20217;-62
2023/06/19 02:36:09;;;;;;;3.60;0.80;;;;;;;22.44;31.06;100882.59;4996385;28;20034;-62
2023/06/19 02:38:35;;;;;;;2.42;0.75;;;;;;;22.59;30.82;100881.63;4997717;28;20093;-58
2023/06/19 02:41:01;;;;;;;2.13;0.80;;;;;;;22.49;30.61;100887.19;4996327;28;20050;-60
2023/06/19 02:43:28;;;;;;;2.67;0.98;;;;;;;22.21;31.35;100875.09;4996347;28;20033;-60
2023/06/19 02:45:54;;;;;;;3.42;0.80;;;;;;;21.61;31.48;100880.59;4996093;28;20509;-63
2023/06/19 02:48:20;;;;;;;3.45;1.15;;;;;;;21.12;32.11;100883.94;4996094;28;20117;-64
2023/06/19 02:50:47;;;;;;;3.00;0.88;;;;;;;21.09;32.48;100874.41;4995985;28;20106;-62
2023/06/19 02:53:13;;;;;;;2.67;0.90;;;;;;;20.66;33.16;100880.47;4995923;28;20073;-58
2023/06/19 02:55:39;;;;;;;2.88;0.90;;;;;;;20.76;33.36;100875.00;4995960;28;20109;-58
2023/06/19 02:58:06;;;;;;;2.83;1.25;;;;;;;20.42;33.36;100875.50;4995881;28;20030;-58
2023/06/19 03:00:32;;;;;;;1.85;0.60;;;;;;;20.11;34.79;100880.09;4995738;28;20061;-58
2023/06/19 03:02:59;;;;;;;1.60;0.60;;;;;;;20.06;34.62;100879.28;4995484;28;20026;-58
2023/06/19 03:05:27;;;;;;;2.65;0.98;;;;;;;19.69;35.64;100891.91;4995992;28;20022;-59
2023/06/19 03:07:53;;;;;;;4.35;1.42;;;;;;;19.62;35.67;100880.47;4995941;28;20037;-58
2023/06/19 03:10:19;;;;;;;5.65;1.38;;;;;;;19.31;35.90;100884.09;4995832;28;20097;-58
2023/06/19 03:12:46;;;;;;;4.50;0.90;;;;;;;18.96;36.80;100880.91;4996343;28;20062;-58
2023/06/19 03:15:12;;;;;;;3.65;1.10;;;;;;;18.95;37.24;100890.13;4995739;28;20058;-59
2023/06/19 03:17:38;;;;;;;2.95;0.80;;;;;;;18.78;37.19;100880.50;4994423;28;20483;-58
2023/06/19 03:20:05;;;;;;;2.85;1.02;;;;;;;18.57;37.29;100877.56;4995606;28;20121;-60
2023/06/19 03:22:32;;;;;;;1.38;0.80;;;;;;;18.43;37.46;100874.50;4995896;28;20475;-59
2023/06/19 03:24:58;;;;;;;2.03;1.05;;;;;;;18.22;37.93;100877.25;4995542;28;20054;-59
2023/06/19 03:27:26;;;;;;;1.98;0.80;;;;;;;18.06;38.71;100882.50;4995578;28;20109;-58
2023/06/19 03:29:53;;;;;;;3.95;1.17;;;;;;;17.92;38.25;100882.06;4995216;28;20092;-58
2023/06/19 03:32:19;;;;;;;2.65;0.80;;;;;;;17.95;37.74;100878.06;4995180;28;20379;-59
2023/06/19 03:34:46;;;;;;;2.90;1.02;;;;;;;17.84;38.81;100887.13;4995237;28;20029;-58
2023/06/19 03:37:12;;;;;;;2.80;1.00;;;;;;;17.73;38.91;100897.03;4995112;28;20027;-58
2023/06/19 03:39:39;;;;;;;3.10;1.00;;;;;;;17.45;39.72;100889.88;4994944;28;20037;-62
2023/06/19 03:42:05;;;;;;;2.45;1.10;;;;;;;17.24;40.25;100886.06;4995389;28;20065;-62
2023/06/19 03:44:31;;;;;;;3.38;1.15;;;;;;;17.29;41.14;100888.84;4994867;28;20386;-62
2023/06/19 03:46:58;;;;;;;4.47;1.27;;;;;;;17.22;40.82;100884.69;4995175;28;20361;-62
2023/06/19 03:49:24;;;;;;;3.67;0.80;;;;;;;17.08;41.54;100882.31;4995212;28;20022;-62
2023/06/19 03:51:50;;;;;;;3.53;1.63;;;;;;;16.91;42.02;100896.91;4995231;28;20037;-62
2023/06/19 03:54:16;;;;;;;3.90;1.13;;;;;;;16.80;42.17;100901.34;4994805;28;20029;-62
2023/06/19 03:56:43;;;;;;;3.72;1.10;;;;;;;16.62;42.59;100908.59;4995025;28;20033;-62
2023/06/19 03:59:09;;;;;;;5.60;1.40;;;;;;;16.55;43.52;100897.13;4994785;28;20027;-62
2023/06/19 04:01:35;;;;;;;3.35;1.30;;;;;;;16.59;43.80;100900.97;4994793;28;20113;-62
2023/06/19 04:04:01;;;;;;;3.65;1.52;;;;;;;16.42;44.84;100891.19;4994753;28;20029;-62
2023/06/19 04:06:27;;;;;;;2.50;1.40;;;;;;;16.52;44.53;100894.91;4994497;28;20031;-62
2023/06/19 04:08:54;;;;;;;5.22;1.30;;;;;;;16.55;45.07;100886.31;4994804;28;20026;-62
2023/06/19 04:11:20;;;;;;;3.70;1.40;;;;;;;16.44;44.99;100883.69;4994431;28;20449;-63
2023/06/19 04:13:47;;;;;;;2.20;1.20;;;;;;;16.48;44.71;100882.94;4993900;28;20030;-63
2023/06/19 04:16:13;;;;;;;4.32;1.20;;;;;;;16.33;45.35;100893.50;4994754;28;20165;-63
2023/06/19 04:18:39;;;;;;;4.20;1.30;;;;;;;16.31;45.33;100885.59;4994314;28;20487;-63
2023/06/19 04:21:06;;;;;;;4.80;1.35;;;;;;;16.40;45.36;100888.75;4994209;28;20026;-63
2023/06/19 04:23:32;;;;;;;5.93;1.65;;;;;;;16.25;46.17;100891.16;4994198;28;20022;-63
2023/06/19 04:25:58;;;;;;;6.53;1.55;;;;;;;16.14;46.62;100886.63;4994521;28;20469;-63
2023/06/19 04:28:25;;;;;;;5.00;1.80;;;;;;;16.10;47.37;100887.13;4994185;28;20033;-63
2023/06/19 04:30:59;;;;;;;6.38;1.85;;;;;;;16.04;47.76;100889.97;4994163;28;20026;-63
2023/06/19 04:33:30;;;;;;;4.47;1.55;;;;;;;16.08;47.71;100889.25;4994098;28;20030;-63
2023/06/19 04:35:56;;;;;;;7.70;2.05;;;;;;;15.84;49.02;100888.50;4994095;28;20046;-63
2023/06/19 04:38:25;;;;;;;5.45;1.90;;;;;;;15.78;49.34;100894.06;4993991;28;20023;-63
2023/06/19 04:40:52;;;;;;;5.82;1.70;;;;;;;15.79;49.67;100888.41;4993718;28;20056;-63
2023/06/19 04:43:19;;;;;;;8.00;2.58;;;;;;;15.73;50.42;100893.94;4993974;28;20027;-62
2023/06/19 04:45:45;;;;;;;5.80;1.75;;;;;;;15.65;51.00;100897.81;5009001;28;20027;-62
2023/06/19 04:48:11;;;;;;;4.35;1.90;;;;;;;15.63;51.12;100894.56;4994062;28;20027;-62
2023/06/19 04:50:38;;;;;;;7.35;2.00;;;;;;;15.67;50.59;100900.31;4993876;28;20107;-62
2023/06/19 04:53:04;;;;;;;4.60;2.10;;;;;;;15.57;51.26;100912.47;4993814;28;20033;-62
2023/06/19 04:55:30;;;;;;;4.47;1.70;;;;;;;15.61;51.37;100912.84;4994024;28;20029;-62
2023/06/19 04:57:56;;;;;;;6.88;2.38;;;;;;;15.52;51.89;100920.47;4993731;28;20030;-62
2023/06/19 05:00:23;;;;;;;5.70;1.95;;;;;;;15.39;51.95;100918.03;4993640;28;20424;-62
2023/06/19 05:02:50;;;;;;;7.50;2.08;;;;;;;15.27;52.52;100917.22;4993732;28;20105;-63
2023/06/19 05:05:17;;;;;;;11.00;2.30;;;;;;;15.27;52.61;100925.31;4993882;28;20026;-63
2023/06/19 05:07:45;;;;;;;6.85;1.70;;;;;;;15.24;52.28;100933.84;5008738;28;20037;-62
2023/06/19 05:10:11;;;;;;;5.32;2.00;;;;;;;15.23;52.18;100933.03;4993674;28;20033;-63
2023/06/19 05:12:37;;;;;;;4.95;1.77;;;;;;;15.16;52.59;100935.03;4993462;28;20538;-63
2023/06/19 05:15:04;;;;;;;4.55;1.73;;;;;;;15.26;52.18;100943.34;4993439;28;20030;-63
2023/06/19 05:17:30;;;;;;;6.40;1.65;;;;;;;15.34;51.47;100947.56;4993499;28;20019;-62
2023/06/19 05:19:56;;;;;;;4.53;1.95;;;;;;;15.32;52.06;100947.81;4993477;28;20034;-63
2023/06/19 05:22:23;;;;;;;4.82;1.92;;;;;;;15.23;52.21;100943.81;4993453;28;20077;-63
2023/06/19 05:24:50;;;;;;;6.25;2.40;;;;;;;15.25;51.91;100940.88;4994561;28;20036;-63
2023/06/19 05:27:16;;;;;;;4.97;1.73;;;;;;;15.37;51.51;100941.69;4997557;28;20026;-63
2023/06/19 05:29:42;;;;;;;4.65;1.83;;;;;;;15.28;51.49;100938.53;4997737;28;20018;-63
2023/06/19 05:32:08;;;;;;;4.95;1.50;;;;;;;15.21;51.39;100945.09;4997496;28;20554;-62
2023/06/19 05:34:35;;;;;;;4.07;1.40;;;;;;;15.17;51.39;100946.63;4997441;28;20030;-63
2023/06/19 05:37:03;;;;;;;4.93;1.90;;;;;;;15.11;51.22;100951.09;4997256;28;20026;-62
2023/06/19 05:39:29;;;;;;;7.72;1.95;;;;;;;15.14;50.86;100942.50;4997434;28;20106;-62
2023/06/19 05:41:56;;;;;;;10.35;1.70;;;;;;;15.09;50.99;100938.88;4997167;28;20066;-62
2023/06/19 05:44:22;;;;;;;7.32;1.67;;;;;;;15.07;50.84;100943.69;4997390;28;20033;-62
2023/06/19 05:46:48;;;;;;;4.70;1.63;;;;;;;15.21;50.70;100939.69;4997100;28;20121;-62
2023/06/19 05:49:14;;;;;;;4.25;1.45;;;;;;;15.23;50.76;100943.00;4997062;28;20092;-63
2023/06/19 05:51:40;;;;;;;3.13;1.50;;;;;;;15.14;50.63;100942.50;4997002;28;20030;-63
2023/06/19 05:54:07;;;;;;;3.20;1.40;;;;;;;15.12;50.54;100947.31;4997281;28;20112;-62
2023/06/19 05:56:33;;;;;;;4.82;1.95;;;;;;;15.08;50.41;100953.41;4996992;28;20026;-63
2023/06/19 05:59:01;;;;;;;2.15;1.40;;;;;;;15.03;50.36;100957.63;4996931;28;20386;-63
2023/06/19 06:01:27;;;;;;;7.03;1.67;;;;;;;15.02;50.19;100955.16;4996609;28;20486;-63
2023/06/19 06:03:55;;;;;;;4.65;1.60;;;;;;;15.02;50.13;100961.38;4996807;28;20505;-63
2023/06/19 06:06:22;;;;;;;4.95;1.52;;;;;;;15.05;49.80;100957.41;4996798;28;20018;-62
2023/06/19 06:08:48;;;;;;;4.07;1.52;;;;;;;14.97;49.65;100968.50;4997038;28;20471;-62
2023/06/19 06:11:15;;;;;;;4.57;1.70;;;;;;;15.02;49.69;100968.66;4996719;28;20030;-62
2023/06/19 06:13:41;;;;;;;3.35;1.42;;;;;;;15.07;49.76;100962.56;4997050;28;20060;-63
2023/06/19 06:16:07;;;;;;;4.65;1.27;;;;;;;15.16;49.15;100963.88;4996936;28;20026;-62
2023/06/19 06:18:34;;;;;;;3.40;1.52;;;;;;;15.04;49.23;100950.34;4996906;28;20034;-62
2023/06/19 06:21:00;;;;;;;6.97;1.45;;;;;;;14.99;49.05;100953.78;5011511;28;20036;-62
2023/06/19 06:23:26;;;;;;;3.47;1.40;;;;;;;15.05;49.18;100954.72;4996534;28;20109;-61
2023/06/19 06:25:52;;;;;;;4.50;1.60;;;;;;;15.08;49.08;100961.50;4996403;28;20023;-63
2023/06/19 06:28:19;;;;;;;3.47;1.25;;;;;;;14.92;49.46;100955.72;4996389;28;20018;-63
2023/06/19 06:30:45;;;;;;;5.95;1.83;;;;;;;14.73;50.45;100959.56;4996696;28;20030;-63
2023/06/19 06:33:11;;;;;;;3.50;1.50;;;;;;;14.79;50.03;100958.66;4996582;28;20598;-63
2023/06/19 06:35:37;;;;;;;3.30;1.30;;;;;;;14.65;50.79;100959.88;4996310;28;20077;-61
2023/06/19 06:38:04;;;;;;;3.90;1.50;;;;;;;14.77;50.66;100966.16;4995394;28;20463;-62
2023/06/19 06:40:30;;;;;;;4.47;1.77;;;;;;;14.74;50.91;100967.41;4996010;28;20049;-61
2023/06/19 06:42:59;;;;;;;5.80;1.52;;;;;;;14.65;51.02;100963.38;4996775;28;20046;-62
2023/06/19 06:45:25;;;;;;;4.80;1.52;;;;;;;14.68;51.37;100964.81;4995973;28;20038;-62
2023/06/19 06:47:51;;;;;;;5.90;1.75;;;;;;;14.62;51.32;100955.78;4996329;28;20065;-62
2023/06/19 06:50:17;;;;;;;4.40;1.45;;;;;;;14.51;51.92;100965.47;4995957;28;20495;-62
2023/06/19 06:52:44;;;;;;;5.53;1.67;;;;;;;14.45;52.08;100966.34;4996041;28;20058;-62
2023/06/19 06:55:10;;;;;;;5.07;1.58;;;;;;;14.47;51.90;100971.53;4995809;28;20061;-61
2023/06/19 06:57:36;;;;;;;6.28;1.80;;;;;;;14.54;51.92;100969.56;4995934;28;20037;-61
2023/06/19 07:00:05;;;;;;;6.45;1.95;;;;;;;14.47;52.63;100975.06;4995939;28;20026;-61
2023/06/19 07:02:31;;;;;;;8.38;1.88;;;;;;;14.43;53.00;100964.94;4995782;28;20387;-62
2023/06/19 07:04:57;;;;;;;6.38;2.00;;;;;;;14.47;53.06;100966.16;4995559;28;20061;-62
2023/06/19 07:07:24;;;;;;;4.72;1.63;;;;;;;14.42;53.31;100966.78;4995655;28;20061;-62
2023/06/19 07:09:50;;;;;;;2.88;1.42;;;;;;;14.46;52.64;100968.00;4995367;28;20038;-62
2023/06/19 07:12:16;;;;;;;4.50;1.67;;;;;;;14.37;53.22;100966.66;4995605;28;20359;-62
2023/06/19 07:14:42;;;;;;;4.28;1.73;;;;;;;14.29;53.70;100969.69;4995673;28;20018;-62
2023/06/19 07:17:09;;;;;;;6.25;2.10;;;;;;;14.29;54.51;100975.06;4995541;28;20062;-62
2023/06/19 07:19:35;;;;;;;5.50;2.20;;;;;;;14.19;54.83;100972.91;4995418;28;20025;-62
2023/06/19 07:22:01;;;;;;;6.10;1.95;;;;;;;14.26;54.79;100976.31;4994138;28;20088;-61
2023/06/19 07:24:28;;;;;;;5.75;2.05;;;;;;;14.31;54.77;100978.34;4995317;28;20463;-62
2023/06/19 07:26:54;;;;;;;4.78;2.17;;;;;;;14.20;55.64;100987.19;4995331;28;20039;-62
2023/06/19 07:29:21;;;;;;;4.82;2.20;;;;;;;14.20;55.96;100987.19;4995219;28;20036;-62
2023/06/19 07:31:47;;;;;;;8.90;2.22;;;;;;;14.22;55.93;100977.03;4995545;28;20340;-62
2023/06/19 07:34:14;;;;;;;5.63;1.90;;;;;;;14.25;55.86;100981.94;4995222;28;20044;-62
2023/06/19 07:36:41;;;;;;;7.13;2.40;;;;;;;14.20;55.75;100988.00;4995560;28;20033;-62
2023/06/19 07:39:07;;;;;;;5.25;2.38;;;;;;;14.14;55.97;100983.53;4995177;28;20467;-62
2023/06/19 07:41:33;;;;;;;6.05;1.75;;;;;;;13.97;56.83;100996.78;4995262;28;20095;-62
2023/06/19 07:44:00;;;;;;;7.85;2.10;;;;;;;13.96;56.66;100992.44;4995446;28;20053;-62
2023/06/19 07:46:26;;;;;;;4.82;1.92;;;;;;;13.93;56.99;100992.06;4995150;28;20124;-62
2023/06/19 07:48:52;;;;;;;6.80;1.77;;;;;;;13.92;57.01;100987.72;4994101;28;20023;-62
2023/06/19 07:51:18;;;;;;;6.20;2.30;;;;;;;13.71;58.07;100994.34;4994810;28;20032;-61
2023/06/19 07:53:44;;;;;;;5.85;1.80;;;;;;;13.81;57.71;100989.28;4994704;28;20026;-61
2023/06/19 07:56:11;;;;;;;6.43;2.00;;;;;;;13.60;58.76;100995.94;4995145;28;20030;-61
2023/06/19 07:58:37;;;;;;;5.75;2.45;;;;;;;13.63;58.82;100991.97;4994743;28;20113;-61
2023/06/19 08:01:03;;;;;;;9.45;2.38;;;;;;;13.61;59.07;100996.75;4994859;28;20033;-61
2023/06/19 08:03:30;;;;;;;7.93;2.35;;;;;;;13.65;58.65;100995.25;4994549;28;20089;-62
2023/06/19 08:05:57;;;;;;;5.40;2.00;;;;;;;13.65;58.94;100998.75;4994503;28;20027;-62
2023/06/19 08:08:23;;;;;;;8.35;2.30;;;;;;;13.59;59.35;100996.97;4994443;28;20038;-62
2023/06/19 08:10:49;;;;;;;9.40;1.95;;;;;;;13.67;59.21;100998.56;4994553;28;20046;-62
2023/06/19 08:13:15;;;;;;;7.68;2.05;;;;;;;13.67;59.35;101003.94;4994457;28;20023;-62
2023/06/19 08:15:42;;;;;;;3.75;1.80;;;;;;;13.78;58.86;101005.06;4994361;28;20034;-62
2023/06/19 08:18:08;;;;;;;6.35;1.95;;;;;;;13.67;59.60;101009.31;4994568;28;20110;-62
2023/06/19 08:20:34;;;;;;;8.80;2.45;;;;;;;13.69;59.71;101002.66;4994285;28;20034;-62
2023/06/19 08:23:00;;;;;;;8.10;1.83;;;;;;;13.62;59.97;101007.28;4994315;28;20479;-62
2023/06/19 08:25:26;;;;;;;5.25;1.95;;;;;;;13.63;59.93;101008.13;4994455;28;20040;-62
2023/06/19 08:27:53;;;;;;;4.03;1.75;;;;;;;13.60;60.20;101008.53;4994438;28;20018;-62
2023/06/19 08:30:19;;;;;;;5.93;2.22;;;;;;;13.52;60.66;100998.09;4994305;28;20105;-62
2023/06/19 08:32:48;;;;;;;8.52;2.30;;;;;;;13.55;60.91;100998.47;4994032;28;20085;-62
2023/06/19 08:35:15;;;;;;;7.40;2.17;;;;;;;13.62;60.27;101001.91;4993959;28;20089;-62
2023/06/19 08:37:41;;;;;;;6.60;2.35;;;;;;;13.58;61.17;101002.56;4993971;28;20077;-62
2023/06/19 08:40:09;;;;;;;6.60;2.25;;;;;;;13.61;60.93;100999.44;4993701;28;20046;-62
2023/06/19 08:42:36;;;;;;;6.32;2.33;;;;;;;13.48;61.42;101001.19;4993992;28;20073;-62
2023/06/19 08:45:02;;;;;;;5.88;2.40;;;;;;;13.50;61.78;101006.38;4993926;28;20205;-62
2023/06/19 08:47:33;;;;;;;5.60;2.10;;;;;;;13.31;62.64;101000.13;4993800;28;20034;-61
2023/06/19 08:50:00;;;;;;;7.35;2.50;;;;;;;13.39;62.49;101002.53;4993791;28;20050;-62
2023/06/19 08:52:26;;;;;;;6.93;2.40;;;;;;;13.30;62.96;101001.16;4993661;28;20026;-61
2023/06/19 08:54:52;;;;;;;8.20;2.28;;;;;;;13.25;63.15;100992.94;4993742;28;20022;-61
2023/06/19 08:57:19;;;;;;;8.43;2.30;;;;;;;13.50;63.01;101003.69;4993799;28;20022;-61
2023/06/19 08:59:51;;;;;;;4.20;2.22;;;;;;;13.15;64.02;100998.75;4993229;28;20114;-61
2023/06/19 09:02:18;;;;;;;4.63;2.15;;;;;;;13.16;64.15;100999.63;4994132;28;20077;-61
2023/06/19 09:04:44;;;;;;;9.35;2.72;;;;;;;13.19;63.81;101004.53;4993704;28;20467;-61
2023/06/19 09:07:14;;;;;;;6.35;2.22;;;;;;;13.13;64.27;101013.47;4993685;28;20426;-62
2023/06/19 09:09:46;;;;;;;6.80;2.42;;;;;;;13.19;62.91;100997.28;4993562;28;20390;-61
2023/06/19 09:12:14;;;;;;;9.15;2.80;;;;;;;13.28;63.34;101011.34;4993514;28;20018;-62
2023/06/19 09:14:44;;;;;;;5.97;2.22;;;;;;;12.94;64.31;101004.53;4993460;28;20098;-62
2023/06/19 09:17:21;;;;;;;4.93;2.33;;;;;;;13.02;63.78;101008.81;4993725;28;20022;-62
2023/06/19 09:19:52;;;;;;;5.93;2.58;;;;;;;13.11;63.73;101010.19;4993739;28;20031;-62
2023/06/19 09:22:21;;;;;;;7.45;2.45;;;;;;;12.92;64.14;101006.59;4993472;28;20049;-62
2023/06/19 09:24:48;;;;;;;6.28;2.67;;;;;;;12.72;64.72;101009.44;4993623;28;20026;-62
2023/06/19 09:27:18;;;;;;;7.22;2.30;;;;;;;12.77;64.13;101017.66;4993524;28;20026;-62
2023/06/19 09:29:47;;;;;;;6.00;2.40;;;;;;;12.73;64.58;101015.63;4993745;28;20031;-62
2023/06/19 09:32:20;;;;;;;7.18;2.72;;;;;;;12.88;63.53;101025.03;4993299;28;20033;-62
2023/06/19 09:34:48;;;;;;;5.50;2.70;;;;;;;12.69;64.03;101017.91;4993235;28;20030;-62
2023/06/19 09:37:14;;;;;;;6.47;2.45;;;;;;;12.64;64.58;101025.78;4993291;28;20065;-62
2023/06/19 09:39:41;;;;;;;9.25;2.75;;;;;;;12.87;63.32;101025.22;4992931;28;20073;-62
2023/06/19 09:42:09;;;;;;;3.83;2.08;;;;;;;12.87;63.49;101034.09;4993390;28;20475;-62
2023/06/19 09:44:42;;;;;;;5.72;2.35;;;;;;;12.87;63.59;101035.97;4993080;28;20026;-62
2023/06/19 09:47:20;;;;;;;6.53;2.42;;;;;;;12.81;63.55;101037.66;4993557;28;20141;-62
2023/06/19 09:49:54;;;;;;;6.28;2.65;;;;;;;12.82;63.46;101052.72;4993213;28;20085;-62
2023/06/19 09:52:24;;;;;;;8.38;3.00;;;;;;;12.78;64.01;101050.72;4993600;28;20031;-62
2023/06/19 09:54:54;;;;;;;4.85;2.42;;;;;;;12.78;63.50;101050.72;4993408;28;20514;-62
2023/06/19 09:57:21;;;;;;;8.40;2.15;;;;;;;12.88;62.92;101051.91;4993202;28;20060;-61
2023/06/19 09:59:56;;;;;;;6.38;2.33;;;;;;;12.77;63.35;101052.59;4993054;28;20027;-61
2023/06/19 10:02:25;;;;;;;5.93;2.58;;;;;;;12.84;63.12;101049.84;4993176;28;20547;-61
2023/06/19 10:04:56;;;;;;;5.03;2.30;;;;;;;12.81;63.48;101059.16;4993364;28;20030;-62
2023/06/19 10:07:27;;;;;;;12.77;2.53;;;;;;;12.72;63.20;101048.91;4992943;28;20033;-62
2023/06/19 10:10:04;;;;;;;8.80;2.55;;;;;;;12.81;63.56;101059.16;4993029;28;20085;-62
2023/06/19 10:12:44;;;;;;;7.97;2.15;;;;;;;12.73;63.48;101067.47;4995131;28;20037;-61
2023/06/19 10:15:12;;;;;;;4.68;2.17;;;;;;;12.65;63.64;101065.00;4996761;28;20085;-62
2023/06/19 10:17:42;;;;;;;8.98;2.53;;;;;;;12.67;63.54;101062.97;4996608;28;20029;-61
2023/06/19 10:20:35;;;;;;;7.30;2.38;;;;;;;12.60;63.49;101071.06;4997263;28;20449;-61
2023/06/19 10:23:17;;;;;;;6.20;2.53;;;;;;;12.46;64.49;101060.56;4997604;28;20045;-62
2023/06/19 10:25:45;;;;;;;8.65;2.10;;;;;;;12.52;63.96;101063.22;4997708;28;20050;-61
2023/06/19 10:28:19;;;;;;;8.60;2.30;;;;;;;12.55;64.32;101064.69;4997403;28;20411;-61
2023/06/19 10:30:45;;;;;;;8.52;2.70;;;;;;;12.59;64.63;101072.06;4996325;28;20022;-61
2023/06/19 10:33:11;;;;;;;6.13;2.33;;;;;;;12.46;64.68;101060.56;4996231;28;20050;-61
2023/06/19 10:35:42;;;;;;;10.02;2.65;;;;;;;12.52;64.65;101070.47;4996170;28;20038;-62
2023/06/19 10:38:09;;;;;;;4.88;2.28;;;;;;;12.52;64.87;101071.28;4996679;28;20030;-61
2023/06/19 10:40:38;;;;;;;7.38;2.20;;;;;;;12.39;65.41;101071.34;4995935;28;20081;-61
2023/06/19 10:43:05;;;;;;;6.72;2.63;;;;;;;12.42;65.01;101069.03;4996011;28;20038;-61
2023/06/19 10:45:31;;;;;;;8.50;2.42;;;;;;;12.47;65.30;101078.31;5011100;28;20117;-62
2023/06/19 10:48:02;;;;;;;6.43;2.50;;;;;;;12.34;65.88;101074.66;4995958;28;20023;-61
2023/06/19 10:50:28;;;;;;;7.47;2.75;;;;;;;12.48;65.23;101079.97;4995956;28;20022;-64
2023/06/19 10:52:55;;;;;;;5.70;2.40;;;;;;;12.52;64.47;101082.03;4995778;28;20479;-61
2023/06/19 10:55:21;;;;;;;5.97;2.35;;;;;;;12.50;64.89;101085.97;4995846;28;20023;-61
2023/06/19 10:57:49;;;;;;;7.03;2.63;;;;;;;12.41;65.97;101085.38;4996067;28;20072;-61
2023/06/19 11:00:26;;;;;;;7.15;2.63;;;;;;;12.41;65.35;101088.88;4995967;28;20034;-61
2023/06/19 11:02:52;;;;;;;6.80;2.40;;;;;;;12.58;64.71;101085.72;4996477;28;20455;-61
2023/06/19 11:05:23;;;;;;;6.80;2.17;;;;;;;12.48;65.00;101096.91;4995751;28;20023;-61
2023/06/19 11:07:57;;;;;;;9.63;2.63;;;;;;;12.52;65.15;101081.19;4995953;28;20037;-61
2023/06/19 11:10:27;;;;;;;7.57;2.50;;;;;;;12.42;65.49;101087.00;4995706;28;20026;-61
2023/06/19 11:12:58;;;;;;;9.27;2.75;;;;;;;12.44;65.43;101087.66;4995664;28;20022;-61
2023/06/19 11:15:34;;;;;;;6.78;2.20;;;;;;;12.45;65.48;101075.03;4995673;28;20041;-61
2023/06/19 11:18:02;;;;;;;8.07;2.70;;;;;;;12.47;65.35;101079.16;4995523;28;20030;-61
2023/06/19 11:20:30;;;;;;;10.32;2.55;;;;;;;12.40;65.71;101084.53;4995427;28;20178;-61
2023/06/19 11:23:01;;;;;;;5.00;2.00;;;;;;;12.48;65.37;101080.78;4995331;28;20149;-61
2023/06/19 11:25:37;;;;;;;3.33;1.85;;;;;;;12.47;65.56;101084.50;4995573;28;20080;-61